Time;durP1;ratioP1;P1;durP2;ratioP2;P2;SDS_P1;SDS_P2;PMS_P1;PMS_P2;Temp;Humidity;BMP_temperature;BMP_pressure;BME280_temperature;BME280_humidity;BME280_pressure;Samples;Min_cycle;Max_cycle;Signal;HPM_P1;HPM_P2
2021/05/01 00:01:34;;;;;;;0.17;0.17;;;;;;;;;;5138930;27;20204;-69
2021/05/01 00:03:59;;;;;;;0.10;0.10;;;;;;;;;;5145783;27;20235;-69
2021/05/01 00:06:25;;;;;;;0.10;0.10;;;;;;;;;;5131717;27;20205;-70
2021/05/01 00:08:51;;;;;;;0.10;0.10;;;;;;;;;;5140781;27;20208;-70
2021/05/01 00:11:18;;;;;;;0.10;0.10;;;;;;;;;;5134902;27;20214;-69
2021/05/01 00:13:44;;;;;;;0.20;0.20;;;;;;;;;;5134558;27;20468;-69
2021/05/01 00:16:10;;;;;;;0.13;0.13;;;;;;;;;;5129821;27;20200;-69
2021/05/01 00:18:36;;;;;;;0.10;0.10;;;;;;;;;;5133945;27;20205;-70
2021/05/01 00:21:03;;;;;;;0.20;0.20;;;;;;;;;;5142134;27;20223;-70
2021/05/01 00:23:29;;;;;;;0.10;0.10;;;;;;;;;;5145084;27;20228;-70
2021/05/01 00:25:54;;;;;;;0.20;0.20;;;;;;;;;;5145291;27;20208;-70
2021/05/01 00:28:20;;;;;;;0.10;0.10;;;;;;;;;;5145714;27;20205;-70
2021/05/01 00:30:46;;;;;;;0.10;0.10;;;;;;;;;;5145445;27;20210;-70
2021/05/01 00:33:12;;;;;;;0.10;0.10;;;;;;;;;;5140883;27;20208;-70
2021/05/01 00:35:38;;;;;;;0.20;0.20;;;;;;;;;;5141146;27;20201;-71
2021/05/01 00:38:04;;;;;;;0.10;0.10;;;;;;;;;;5127793;27;20213;-70
2021/05/01 00:40:30;;;;;;;0.10;0.10;;;;;;;;;;5140677;27;20200;-69
2021/05/01 00:42:56;;;;;;;0.10;0.10;;;;;;;;;;5135872;27;20209;-70
2021/05/01 00:45:22;;;;;;;0.20;0.20;;;;;;;;;;5141009;27;20204;-69
2021/05/01 00:47:47;;;;;;;0.20;0.20;;;;;;;;;;5135496;27;20394;-70
2021/05/01 00:50:13;;;;;;;0.17;0.17;;;;;;;;;;5143421;27;20200;-70
2021/05/01 00:52:40;;;;;;;0.10;0.10;;;;;;;;;;5134401;27;20498;-70
2021/05/01 00:55:07;;;;;;;0.10;0.10;;;;;;;;;;5138596;27;20257;-72
2021/05/01 00:57:33;;;;;;;0.13;0.13;;;;;;;;;;5134238;27;20208;-70
2021/05/01 00:59:59;;;;;;;0.20;0.20;;;;;;;;;;5133112;27;20566;-69
2021/05/01 01:02:27;;;;;;;0.10;0.10;;;;;;;;;;5132210;27;20205;-70
2021/05/01 01:04:53;;;;;;;0.20;0.20;;;;;;;;;;5142217;27;20294;-70
2021/05/01 01:07:19;;;;;;;0.10;0.10;;;;;;;;;;5134690;27;20211;-69
2021/05/01 01:09:45;;;;;;;0.10;0.10;;;;;;;;;;5144960;27;20510;-70
2021/05/01 01:12:11;;;;;;;0.17;0.17;;;;;;;;;;5143867;27;20211;-69
2021/05/01 01:14:37;;;;;;;0.17;0.17;;;;;;;;;;5144344;27;20219;-70
2021/05/01 01:17:04;;;;;;;0.10;0.10;;;;;;;;;;5144570;27;20211;-69
2021/05/01 01:19:29;;;;;;;0.10;0.10;;;;;;;;;;5144667;27;20211;-70
2021/05/01 01:21:56;;;;;;;0.10;0.10;;;;;;;;;;5144870;27;20214;-70
2021/05/01 01:24:25;;;;;;;0.20;0.20;;;;;;;;;;5141442;27;20232;-69
2021/05/01 01:26:51;;;;;;;0.13;0.13;;;;;;;;;;5142876;27;20508;-69
2021/05/01 01:29:17;;;;;;;0.10;0.10;;;;;;;;;;5133904;27;20269;-69
2021/05/01 01:31:43;;;;;;;0.10;0.10;;;;;;;;;;5145032;27;20315;-69
2021/05/01 01:34:09;;;;;;;0.10;0.10;;;;;;;;;;5144345;27;20210;-70
2021/05/01 01:36:35;;;;;;;0.10;0.10;;;;;;;;;;5143199;27;20204;-71
2021/05/01 01:39:01;;;;;;;0.10;0.10;;;;;;;;;;5127871;27;20287;-70
2021/05/01 01:41:27;;;;;;;0.10;0.10;;;;;;;;;;5126549;28;20205;-70
2021/05/01 01:43:53;;;;;;;0.10;0.10;;;;;;;;;;5127866;28;20215;-70
2021/05/01 01:46:19;;;;;;;0.10;0.10;;;;;;;;;;5140806;28;20444;-70
2021/05/01 01:48:44;;;;;;;0.10;0.10;;;;;;;;;;5143660;27;20199;-69
2021/05/01 01:51:10;;;;;;;0.10;0.10;;;;;;;;;;5137915;28;20204;-69
2021/05/01 01:53:36;;;;;;;0.20;0.20;;;;;;;;;;5143118;28;20196;-71
2021/05/01 01:56:02;;;;;;;0.10;0.10;;;;;;;;;;5140753;28;20201;-71
2021/05/01 01:58:29;;;;;;;0.20;0.20;;;;;;;;;;5138698;28;20196;-70
2021/05/01 02:00:55;;;;;;;0.20;0.20;;;;;;;;;;5144213;28;20211;-70
2021/05/01 02:03:21;;;;;;;0.10;0.10;;;;;;;;;;5142431;28;20219;-70
2021/05/01 02:05:47;;;;;;;0.10;0.10;;;;;;;;;;5132531;28;20219;-69
2021/05/01 02:08:13;;;;;;;0.20;0.20;;;;;;;;;;5134530;28;20265;-70
2021/05/01 02:10:39;;;;;;;0.20;0.20;;;;;;;;;;5131277;28;20483;-69
2021/05/01 02:13:05;;;;;;;0.17;0.17;;;;;;;;;;5144138;28;20199;-69
2021/05/01 02:15:32;;;;;;;0.13;0.13;;;;;;;;;;5138742;28;20379;-69
2021/05/01 02:17:58;;;;;;;0.10;0.10;;;;;;;;;;5143008;28;20326;-69
2021/05/01 02:20:26;;;;;;;0.10;0.10;;;;;;;;;;5140455;28;20201;-69
2021/05/01 02:22:51;;;;;;;0.10;0.10;;;;;;;;;;5128032;28;20224;-70
2021/05/01 02:25:18;;;;;;;0.10;0.10;;;;;;;;;;5139272;28;20209;-70
2021/05/01 02:27:44;;;;;;;0.10;0.10;;;;;;;;;;5127224;28;20251;-70
2021/05/01 02:30:11;;;;;;;0.10;0.10;;;;;;;;;;5139863;27;20221;-70
2021/05/01 02:32:38;;;;;;;0.10;0.10;;;;;;;;;;5133808;27;20530;-70
2021/05/01 02:35:04;;;;;;;0.10;0.10;;;;;;;;;;5148183;27;20204;-69
2021/05/01 02:37:29;;;;;;;0.10;0.10;;;;;;;;;;5147722;27;20377;-70
2021/05/01 02:39:55;;;;;;;0.10;0.10;;;;;;;;;;5145341;27;20504;-69
2021/05/01 02:42:21;;;;;;;0.10;0.10;;;;;;;;;;5147917;27;20202;-71
2021/05/01 02:44:47;;;;;;;0.10;0.10;;;;;;;;;;5142517;27;20224;-70
2021/05/01 02:47:13;;;;;;;0.20;0.20;;;;;;;;;;5142246;27;20201;-70
2021/05/01 02:49:40;;;;;;;0.20;0.20;;;;;;;;;;5141534;27;20209;-70
2021/05/01 02:52:05;;;;;;;0.10;0.10;;;;;;;;;;5132586;27;20208;-71
2021/05/01 02:54:31;;;;;;;0.10;0.10;;;;;;;;;;5143363;27;20214;-71
2021/05/01 02:56:57;;;;;;;0.13;0.13;;;;;;;;;;5141240;27;20256;-71
2021/05/01 02:59:23;;;;;;;0.13;0.13;;;;;;;;;;5137519;27;20201;-70
2021/05/01 03:01:48;;;;;;;0.20;0.20;;;;;;;;;;5139523;27;20201;-70
2021/05/01 03:04:14;;;;;;;0.10;0.10;;;;;;;;;;5144323;27;20228;-71
2021/05/01 03:06:41;;;;;;;0.10;0.10;;;;;;;;;;5136131;27;20208;-70
2021/05/01 03:09:06;;;;;;;0.10;0.10;;;;;;;;;;5138212;27;20208;-70
2021/05/01 03:11:32;;;;;;;0.10;0.10;;;;;;;;;;5137307;27;20269;-70
2021/05/01 03:13:58;;;;;;;0.10;0.10;;;;;;;;;;5140154;27;20260;-70
2021/05/01 03:16:24;;;;;;;0.20;0.20;;;;;;;;;;5143039;27;20287;-70
2021/05/01 03:18:50;;;;;;;0.10;0.10;;;;;;;;;;5147887;27;20222;-70
2021/05/01 03:21:15;;;;;;;0.10;0.10;;;;;;;;;;5147066;27;20260;-71
2021/05/01 03:23:42;;;;;;;0.10;0.10;;;;;;;;;;5135676;27;20220;-71
2021/05/01 03:26:08;;;;;;;0.10;0.10;;;;;;;;;;5136739;27;20212;-70
2021/05/01 03:28:33;;;;;;;0.10;0.10;;;;;;;;;;5143062;27;20249;-69
2021/05/01 03:30:59;;;;;;;0.17;0.17;;;;;;;;;;5135798;27;20264;-70
2021/05/01 03:33:26;;;;;;;0.10;0.10;;;;;;;;;;5137135;27;20226;-69
2021/05/01 03:35:52;;;;;;;0.20;0.20;;;;;;;;;;5137404;27;20223;-70
2021/05/01 03:38:18;;;;;;;0.10;0.10;;;;;;;;;;5140803;27;20200;-70
2021/05/01 03:40:44;;;;;;;0.10;0.10;;;;;;;;;;5133579;27;20200;-70
2021/05/01 03:43:10;;;;;;;0.10;0.10;;;;;;;;;;5137904;27;20223;-70
2021/05/01 03:45:36;;;;;;;0.20;0.20;;;;;;;;;;5133683;27;20205;-71
2021/05/01 03:48:02;;;;;;;0.20;0.20;;;;;;;;;;5136607;27;20375;-70
2021/05/01 03:50:28;;;;;;;0.20;0.20;;;;;;;;;;5133947;27;20205;-70
2021/05/01 03:52:54;;;;;;;0.10;0.10;;;;;;;;;;5138424;27;20274;-72
2021/05/01 03:55:19;;;;;;;0.10;0.10;;;;;;;;;;5135802;27;20269;-71
2021/05/01 03:57:46;;;;;;;0.10;0.10;;;;;;;;;;5130130;27;20357;-70
2021/05/01 04:00:12;;;;;;;0.10;0.10;;;;;;;;;;5126568;27;20417;-70
2021/05/01 04:02:39;;;;;;;0.10;0.10;;;;;;;;;;5133319;27;20240;-71
2021/05/01 04:05:05;;;;;;;0.20;0.20;;;;;;;;;;5129803;27;20232;-71
2021/05/01 04:07:31;;;;;;;0.10;0.10;;;;;;;;;;5136797;27;20201;-70
2021/05/01 04:09:57;;;;;;;0.10;0.10;;;;;;;;;;5130644;27;20207;-71
2021/05/01 04:12:23;;;;;;;0.10;0.10;;;;;;;;;;5132749;27;20474;-71
2021/05/01 04:14:49;;;;;;;0.20;0.20;;;;;;;;;;5127481;27;20561;-70
2021/05/01 04:17:15;;;;;;;0.10;0.10;;;;;;;;;;5136349;27;20492;-70
2021/05/01 04:19:41;;;;;;;0.13;0.13;;;;;;;;;;5134187;27;20282;-71
2021/05/01 04:22:07;;;;;;;0.10;0.10;;;;;;;;;;5132419;27;20546;-70
2021/05/01 04:24:33;;;;;;;0.10;0.10;;;;;;;;;;5130727;27;20228;-71
2021/05/01 04:26:59;;;;;;;0.10;0.10;;;;;;;;;;5128835;27;20274;-70
2021/05/01 04:29:25;;;;;;;0.10;0.10;;;;;;;;;;5134699;27;20205;-71
2021/05/01 04:31:51;;;;;;;0.10;0.10;;;;;;;;;;5127517;27;20216;-70
2021/05/01 04:34:18;;;;;;;0.13;0.13;;;;;;;;;;5128002;27;20213;-71
2021/05/01 04:36:44;;;;;;;0.10;0.10;;;;;;;;;;5135995;27;20207;-71
2021/05/01 04:39:09;;;;;;;0.10;0.10;;;;;;;;;;5139716;27;20496;-71
2021/05/01 04:41:35;;;;;;;0.10;0.10;;;;;;;;;;5145119;27;20212;-70
2021/05/01 04:44:01;;;;;;;0.10;0.10;;;;;;;;;;5142612;27;20225;-70
2021/05/01 04:46:27;;;;;;;0.87;0.87;;;;;;;;;;5144062;27;20215;-72
2021/05/01 04:48:53;;;;;;;0.10;0.10;;;;;;;;;;5144095;27;20197;-71
2021/05/01 04:51:19;;;;;;;0.20;0.20;;;;;;;;;;5136040;27;20210;-70
2021/05/01 04:53:45;;;;;;;0.20;0.20;;;;;;;;;;5138121;27;20374;-71
2021/05/01 04:56:11;;;;;;;0.10;0.10;;;;;;;;;;5145108;27;20203;-70
2021/05/01 04:58:36;;;;;;;0.10;0.10;;;;;;;;;;5138716;27;20201;-71
2021/05/01 05:01:02;;;;;;;0.10;0.10;;;;;;;;;;5132246;27;20417;-69
2021/05/01 05:03:28;;;;;;;0.10;0.10;;;;;;;;;;5140264;27;20374;-69
2021/05/01 05:05:55;;;;;;;0.20;0.20;;;;;;;;;;5141709;27;20208;-70
2021/05/01 05:08:20;;;;;;;0.10;0.10;;;;;;;;;;5142365;27;20508;-70
2021/05/01 05:10:46;;;;;;;0.20;0.20;;;;;;;;;;5144797;27;20215;-70
2021/05/01 05:13:12;;;;;;;0.10;0.10;;;;;;;;;;5138121;27;20204;-70
2021/05/01 05:15:38;;;;;;;0.10;0.10;;;;;;;;;;5142845;27;20494;-70
2021/05/01 05:18:04;;;;;;;0.10;0.10;;;;;;;;;;5144547;27;20205;-70
2021/05/01 05:20:30;;;;;;;0.10;0.10;;;;;;;;;;5141721;27;20200;-70
2021/05/01 05:22:56;;;;;;;0.10;0.10;;;;;;;;;;5136592;27;20264;-70
2021/05/01 05:25:22;;;;;;;0.10;0.10;;;;;;;;;;5134390;27;20296;-70
2021/05/01 05:27:48;;;;;;;0.10;0.10;;;;;;;;;;5143081;27;20216;-70
2021/05/01 05:30:14;;;;;;;0.10;0.10;;;;;;;;;;5141492;27;20207;-71
2021/05/01 05:32:40;;;;;;;0.10;0.10;;;;;;;;;;5128956;27;20223;-70
2021/05/01 05:35:06;;;;;;;0.10;0.10;;;;;;;;;;5138431;27;20200;-71
2021/05/01 05:37:32;;;;;;;0.30;0.30;;;;;;;;;;5130196;27;20201;-70
2021/05/01 05:39:58;;;;;;;0.10;0.10;;;;;;;;;;5134693;27;20204;-71
2021/05/01 05:42:24;;;;;;;0.10;0.10;;;;;;;;;;5144081;28;20207;-69
2021/05/01 05:44:51;;;;;;;0.10;0.10;;;;;;;;;;5142760;28;20224;-70
2021/05/01 05:47:17;;;;;;;0.10;0.10;;;;;;;;;;5137009;28;20200;-72
2021/05/01 05:49:43;;;;;;;0.10;0.10;;;;;;;;;;5139481;27;20269;-70
2021/05/01 05:52:09;;;;;;;0.10;0.10;;;;;;;;;;5143451;28;20548;-70
2021/05/01 05:54:35;;;;;;;0.10;0.10;;;;;;;;;;5144235;28;20220;-70
2021/05/01 05:57:02;;;;;;;0.20;0.20;;;;;;;;;;5146176;27;20215;-70
2021/05/01 05:59:28;;;;;;;0.10;0.10;;;;;;;;;;5143950;28;20402;-70
2021/05/01 06:01:53;;;;;;;0.17;0.17;;;;;;;;;;5126309;28;20221;-70
2021/05/01 06:04:21;;;;;;;0.20;0.20;;;;;;;;;;5125588;28;20295;-70
2021/05/01 06:06:49;;;;;;;0.20;0.20;;;;;;;;;;5134430;27;20203;-70
2021/05/01 06:09:15;;;;;;;0.17;0.17;;;;;;;;;;5148499;27;20208;-69
2021/05/01 06:11:42;;;;;;;0.10;0.10;;;;;;;;;;5144486;27;20210;-71
2021/05/01 06:14:10;;;;;;;0.10;0.10;;;;;;;;;;5138467;27;20200;-70
2021/05/01 06:16:37;;;;;;;0.10;0.10;;;;;;;;;;5139230;27;20213;-72
2021/05/01 06:19:03;;;;;;;0.20;0.20;;;;;;;;;;5143486;27;20211;-69
2021/05/01 06:21:29;;;;;;;0.10;0.10;;;;;;;;;;5132009;27;20213;-71
2021/05/01 06:23:55;;;;;;;0.10;0.10;;;;;;;;;;5147668;27;20242;-72
2021/05/01 06:26:21;;;;;;;0.10;0.10;;;;;;;;;;5141078;27;20237;-71
2021/05/01 06:28:47;;;;;;;0.10;0.10;;;;;;;;;;5144555;27;20198;-70
2021/05/01 06:31:14;;;;;;;0.10;0.10;;;;;;;;;;5140771;27;20219;-70
2021/05/01 06:33:40;;;;;;;0.10;0.10;;;;;;;;;;5145822;27;20201;-71
2021/05/01 06:36:07;;;;;;;0.10;0.10;;;;;;;;;;5133939;27;20384;-70
2021/05/01 06:38:34;;;;;;;0.10;0.10;;;;;;;;;;5146701;27;20363;-70
2021/05/01 06:41:05;;;;;;;0.10;0.10;;;;;;;;;;5140889;27;20297;-71
2021/05/01 06:43:32;;;;;;;0.10;0.10;;;;;;;;;;5143519;27;20329;-71
2021/05/01 06:45:58;;;;;;;0.10;0.10;;;;;;;;;;5141198;27;20503;-70
2021/05/01 06:48:26;;;;;;;0.10;0.10;;;;;;;;;;5146882;27;20312;-71
2021/05/01 06:50:53;;;;;;;0.10;0.10;;;;;;;;;;5143104;27;20501;-70
2021/05/01 06:53:28;;;;;;;0.10;0.10;;;;;;;;;;5145141;27;20413;-70
2021/05/01 06:55:54;;;;;;;0.10;0.10;;;;;;;;;;5131611;27;20200;-70
2021/05/01 06:58:20;;;;;;;0.10;0.10;;;;;;;;;;5135729;27;20346;-70
2021/05/01 07:00:46;;;;;;;0.10;0.10;;;;;;;;;;5142094;27;20241;-70
2021/05/01 07:03:12;;;;;;;0.10;0.10;;;;;;;;;;5141659;27;20354;-70
2021/05/01 07:05:38;;;;;;;0.20;0.20;;;;;;;;;;5150155;27;20224;-71
2021/05/01 07:08:04;;;;;;;0.17;0.17;;;;;;;;;;5147639;27;20320;-70
2021/05/01 07:10:31;;;;;;;0.10;0.10;;;;;;;;;;5146684;27;20237;-70
2021/05/01 07:12:59;;;;;;;0.10;0.10;;;;;;;;;;5137939;27;20306;-70
2021/05/01 07:15:25;;;;;;;0.10;0.10;;;;;;;;;;5139727;27;20197;-70
2021/05/01 07:17:52;;;;;;;0.10;0.10;;;;;;;;;;5137365;27;20209;-71
2021/05/01 07:20:18;;;;;;;0.10;0.10;;;;;;;;;;5145256;27;20273;-71
2021/05/01 07:22:45;;;;;;;0.10;0.10;;;;;;;;;;5141829;27;20220;-71
2021/05/01 07:25:12;;;;;;;0.10;0.10;;;;;;;;;;5135074;27;20228;-70
2021/05/01 07:27:41;;;;;;;0.10;0.10;;;;;;;;;;5145033;27;20268;-70
2021/05/01 07:30:08;;;;;;;0.10;0.10;;;;;;;;;;5144297;27;20227;-70
2021/05/01 07:32:34;;;;;;;0.20;0.20;;;;;;;;;;5143360;27;20254;-71
2021/05/01 07:35:02;;;;;;;0.10;0.10;;;;;;;;;;5134958;27;20424;-71
2021/05/01 07:37:30;;;;;;;0.17;0.17;;;;;;;;;;5139525;27;20204;-70
2021/05/01 07:39:57;;;;;;;0.10;0.10;;;;;;;;;;5133920;27;20485;-70
2021/05/01 07:42:23;;;;;;;0.10;0.10;;;;;;;;;;5143968;27;20211;-70
2021/05/01 07:44:51;;;;;;;0.17;0.17;;;;;;;;;;5139423;27;20224;-70
2021/05/01 07:47:18;;;;;;;0.10;0.10;;;;;;;;;;5137527;27;20204;-69
2021/05/01 07:49:44;;;;;;;0.10;0.10;;;;;;;;;;5155716;27;20209;-69
2021/05/01 07:52:10;;;;;;;0.10;0.10;;;;;;;;;;5143681;27;20200;-70
2021/05/01 07:54:42;;;;;;;0.10;0.10;;;;;;;;;;5154024;27;20234;-70
2021/05/01 07:57:08;;;;;;;0.20;0.20;;;;;;;;;;5135504;27;20419;-70
2021/05/01 07:59:34;;;;;;;0.10;0.10;;;;;;;;;;5146466;27;20208;-72
2021/05/01 08:02:00;;;;;;;0.13;0.13;;;;;;;;;;5139166;27;20202;-71
2021/05/01 08:04:25;;;;;;;0.10;0.10;;;;;;;;;;5142815;27;20264;-69
2021/05/01 08:06:51;;;;;;;0.10;0.10;;;;;;;;;;5126560;27;20271;-70
2021/05/01 08:09:17;;;;;;;0.10;0.10;;;;;;;;;;5140145;27;20201;-69
2021/05/01 08:11:43;;;;;;;0.10;0.10;;;;;;;;;;5144802;27;20515;-72
2021/05/01 08:14:10;;;;;;;0.10;0.10;;;;;;;;;;5146180;27;20411;-70
2021/05/01 08:16:36;;;;;;;0.10;0.10;;;;;;;;;;5146628;27;20249;-70
2021/05/01 08:19:02;;;;;;;0.10;0.10;;;;;;;;;;5145788;27;20209;-69
2021/05/01 08:21:29;;;;;;;0.10;0.10;;;;;;;;;;5130802;27;20364;-70
2021/05/01 08:23:55;;;;;;;0.20;0.20;;;;;;;;;;5140052;27;20292;-70
2021/05/01 08:26:21;;;;;;;0.10;0.10;;;;;;;;;;5128550;27;20272;-69
2021/05/01 08:28:47;;;;;;;0.10;0.10;;;;;;;;;;5143035;27;20539;-72
2021/05/01 08:31:13;;;;;;;0.10;0.10;;;;;;;;;;5138930;27;20205;-69
2021/05/01 08:33:39;;;;;;;0.10;0.10;;;;;;;;;;5135110;27;20355;-71
2021/05/01 08:36:05;;;;;;;0.10;0.10;;;;;;;;;;5131775;27;20201;-70
2021/05/01 08:38:36;;;;;;;0.10;0.10;;;;;;;;;;5138161;27;20204;-69
2021/05/01 08:41:02;;;;;;;0.10;0.10;;;;;;;;;;5141260;27;20249;-69
2021/05/01 08:43:27;;;;;;;0.10;0.10;;;;;;;;;;5132374;27;20490;-69
2021/05/01 08:45:53;;;;;;;0.10;0.10;;;;;;;;;;5136270;27;20201;-69
2021/05/01 08:48:21;;;;;;;0.10;0.10;;;;;;;;;;5142427;27;20201;-69
2021/05/01 08:50:49;;;;;;;0.10;0.10;;;;;;;;;;5138851;27;20201;-70
2021/05/01 08:53:15;;;;;;;0.10;0.10;;;;;;;;;;5132235;27;20198;-70
2021/05/01 08:55:41;;;;;;;0.10;0.10;;;;;;;;;;5138126;27;20521;-70
2021/05/01 08:58:08;;;;;;;0.10;0.10;;;;;;;;;;5136420;27;20221;-70
2021/05/01 09:00:34;;;;;;;0.10;0.10;;;;;;;;;;5144851;27;20207;-70
2021/05/01 09:03:04;;;;;;;0.10;0.10;;;;;;;;;;5146984;27;20194;-72
2021/05/01 09:05:31;;;;;;;0.10;0.10;;;;;;;;;;5145697;27;20221;-72
2021/05/01 09:07:56;;;;;;;0.10;0.10;;;;;;;;;;5148063;27;20203;-70
2021/05/01 09:10:23;;;;;;;0.10;0.10;;;;;;;;;;5142642;27;20395;-70
2021/05/01 09:12:49;;;;;;;0.10;0.10;;;;;;;;;;5141844;27;20251;-72
2021/05/01 09:15:18;;;;;;;0.10;0.10;;;;;;;;;;5142980;27;20417;-71
2021/05/01 09:17:45;;;;;;;0.10;0.10;;;;;;;;;;5130000;27;20248;-72
2021/05/01 09:20:11;;;;;;;0.10;0.10;;;;;;;;;;5138907;27;20207;-71
2021/05/01 09:22:51;;;;;;;0.10;0.10;;;;;;;;;;5137455;27;20222;-72
2021/05/01 09:25:17;;;;;;;0.10;0.10;;;;;;;;;;5139538;27;20206;-69
2021/05/01 09:27:57;;;;;;;0.10;0.10;;;;;;;;;;5130215;27;20204;-68
2021/05/01 09:30:26;;;;;;;0.10;0.10;;;;;;;;;;5136367;27;20204;-73
2021/05/01 09:32:52;;;;;;;0.10;0.10;;;;;;;;;;5131986;27;20243;-72
2021/05/01 09:35:18;;;;;;;0.10;0.10;;;;;;;;;;5134570;27;20485;-71
2021/05/01 09:37:44;;;;;;;0.10;0.10;;;;;;;;;;5136489;27;20210;-71
2021/05/01 09:40:11;;;;;;;0.10;0.10;;;;;;;;;;5134528;27;20312;-71
2021/05/01 09:42:37;;;;;;;0.10;0.10;;;;;;;;;;5134083;27;20198;-70
2021/05/01 09:45:08;;;;;;;0.10;0.10;;;;;;;;;;5136775;28;20223;-71
2021/05/01 09:47:33;;;;;;;0.10;0.10;;;;;;;;;;5138739;27;20265;-68
2021/05/01 09:50:16;;;;;;;0.10;0.10;;;;;;;;;;5131790;28;20199;-71
2021/05/01 09:52:54;;;;;;;0.10;0.10;;;;;;;;;;5134584;27;20215;-71
2021/05/01 09:55:39;;;;;;;0.10;0.10;;;;;;;;;;5135188;28;20416;-71
2021/05/01 09:58:11;;;;;;;0.10;0.10;;;;;;;;;;5133816;27;20295;-72
2021/05/01 10:00:36;;;;;;;0.10;0.10;;;;;;;;;;5137194;28;20395;-72
2021/05/01 10:03:02;;;;;;;0.10;0.10;;;;;;;;;;5132464;28;20222;-72
2021/05/01 10:05:28;;;;;;;0.10;0.10;;;;;;;;;;5135223;28;20222;-72
2021/05/01 10:07:54;;;;;;;0.10;0.10;;;;;;;;;;5136898;27;20215;-72
2021/05/01 10:10:20;;;;;;;0.10;0.10;;;;;;;;;;5135291;27;20227;-68
2021/05/01 10:12:48;;;;;;;0.10;0.10;;;;;;;;;;5137100;28;20211;-71
2021/05/01 10:15:14;;;;;;;0.10;0.10;;;;;;;;;;5140393;27;20217;-70
2021/05/01 10:17:40;;;;;;;0.10;0.10;;;;;;;;;;5129054;28;20211;-72
2021/05/01 10:20:07;;;;;;;0.10;0.10;;;;;;;;;;5137634;28;20244;-72
2021/05/01 10:22:35;;;;;;;0.10;0.10;;;;;;;;;;5130086;28;20269;-70
2021/05/01 10:25:02;;;;;;;0.10;0.10;;;;;;;;;;5130079;27;20225;-73
2021/05/01 10:27:40;;;;;;;0.10;0.10;;;;;;;;;;5143836;27;20355;-68
2021/05/01 10:30:13;;;;;;;0.10;0.10;;;;;;;;;;5139683;28;20409;-68
2021/05/01 10:32:41;;;;;;;0.10;0.10;;;;;;;;;;5138421;28;20205;-67
2021/05/01 10:35:08;;;;;;;0.10;0.10;;;;;;;;;;5133442;28;20272;-72
2021/05/01 10:40:14;;;;;;;0.10;0.10;;;;;;;;;;5099564;27;20565;-66
2021/05/01 10:42:40;;;;;;;0.10;0.10;;;;;;;;;;5097586;28;20206;-66
2021/05/01 10:48:26;;;;;;;0.10;0.10;;;;;;;;;;5083718;28;20318;-71
2021/05/01 10:50:59;;;;;;;0.10;0.10;;;;;;;;;;5068707;28;20237;-69
2021/05/01 10:53:25;;;;;;;0.10;0.10;;;;;;;;;;5065316;28;20214;-74
2021/05/01 10:55:52;;;;;;;0.10;0.10;;;;;;;;;;5062174;28;20200;-68
2021/05/01 10:58:36;;;;;;;0.10;0.10;;;;;;;;;;5074019;28;20200;-69
2021/05/01 11:01:02;;;;;;;0.10;0.10;;;;;;;;;;5069488;28;20203;-69
2021/05/01 11:03:30;;;;;;;0.10;0.10;;;;;;;;;;5070722;28;20200;-69
2021/05/01 11:05:57;;;;;;;0.10;0.10;;;;;;;;;;5075963;28;20220;-69
2021/05/01 11:08:33;;;;;;;0.10;0.10;;;;;;;;;;5067445;28;20197;-68
2021/05/01 11:11:00;;;;;;;0.10;0.10;;;;;;;;;;5076026;28;20207;-69
2021/05/01 11:13:26;;;;;;;0.10;0.10;;;;;;;;;;5070500;28;20208;-68
2021/05/01 11:15:56;;;;;;;0.10;0.10;;;;;;;;;;5073437;28;20211;-69
2021/05/01 11:18:24;;;;;;;0.10;0.10;;;;;;;;;;5063459;28;20206;-69
2021/05/01 11:20:52;;;;;;;0.10;0.10;;;;;;;;;;5069178;28;20201;-67
2021/05/01 11:23:20;;;;;;;0.10;0.10;;;;;;;;;;5070362;28;20235;-69
2021/05/01 11:25:46;;;;;;;0.10;0.10;;;;;;;;;;5064544;28;20209;-68
2021/05/01 11:28:12;;;;;;;0.10;0.10;;;;;;;;;;5070084;28;20225;-67
2021/05/01 11:30:38;;;;;;;0.10;0.10;;;;;;;;;;5071274;28;20279;-70
2021/05/01 11:33:05;;;;;;;0.10;0.10;;;;;;;;;;5070734;28;20236;-68
2021/05/01 11:35:31;;;;;;;0.10;0.10;;;;;;;;;;5071313;28;20210;-68
2021/05/01 11:37:59;;;;;;;0.10;0.10;;;;;;;;;;5070715;28;20198;-68
2021/05/01 11:40:26;;;;;;;0.10;0.10;;;;;;;;;;5068683;28;20219;-67
2021/05/01 11:42:54;;;;;;;0.10;0.10;;;;;;;;;;5076368;28;20224;-67
2021/05/01 11:45:24;;;;;;;0.10;0.10;;;;;;;;;;5071776;28;20367;-67
2021/05/01 11:47:51;;;;;;;0.10;0.10;;;;;;;;;;5068517;28;20226;-67
2021/05/01 11:50:18;;;;;;;0.10;0.10;;;;;;;;;;5075322;28;20204;-68
2021/05/01 11:52:57;;;;;;;0.10;0.10;;;;;;;;;;5071585;28;20202;-67
2021/05/01 11:55:27;;;;;;;0.10;0.10;;;;;;;;;;5073768;28;20436;-68
2021/05/01 11:57:55;;;;;;;0.10;0.10;;;;;;;;;;5063875;28;20207;-69
2021/05/01 12:00:27;;;;;;;0.10;0.10;;;;;;;;;;5057179;28;20211;-66
2021/05/01 12:02:53;;;;;;;0.10;0.10;;;;;;;;;;5049494;28;20282;-70
2021/05/01 12:05:20;;;;;;;0.10;0.10;;;;;;;;;;5065414;28;20277;-69
2021/05/01 12:07:50;;;;;;;0.10;0.10;;;;;;;;;;5065248;28;20223;-70
2021/05/01 12:10:17;;;;;;;0.10;0.10;;;;;;;;;;5061237;28;20209;-69
2021/05/01 12:12:48;;;;;;;0.10;0.10;;;;;;;;;;5059575;28;20207;-67
2021/05/01 12:15:15;;;;;;;0.10;0.10;;;;;;;;;;5046869;28;20209;-69
2021/05/01 12:17:49;;;;;;;0.10;0.10;;;;;;;;;;5060866;28;20199;-67
2021/05/01 12:20:16;;;;;;;0.10;0.10;;;;;;;;;;5062734;28;20229;-68
2021/05/01 12:22:42;;;;;;;0.10;0.10;;;;;;;;;;5058726;28;20230;-67
2021/05/01 12:25:27;;;;;;;0.10;0.10;;;;;;;;;;5054408;28;20591;-69
2021/05/01 12:27:53;;;;;;;0.10;0.10;;;;;;;;;;5057130;28;20226;-68
2021/05/01 12:30:49;;;;;;;0.10;0.10;;;;;;;;;;5057144;28;20218;-67
2021/05/01 12:33:22;;;;;;;0.10;0.10;;;;;;;;;;5015999;28;20249;-67
2021/05/01 12:35:49;;;;;;;0.10;0.10;;;;;;;;;;5046054;28;20215;-67
2021/05/01 12:38:15;;;;;;;0.10;0.10;;;;;;;;;;5058867;28;20207;-67
2021/05/01 12:40:41;;;;;;;0.10;0.10;;;;;;;;;;5057149;28;20502;-67
2021/05/01 12:43:22;;;;;;;0.10;0.10;;;;;;;;;;5058120;28;20245;-64
2021/05/01 12:45:48;;;;;;;0.10;0.10;;;;;;;;;;5055278;28;20273;-65
2021/05/01 12:48:42;;;;;;;0.10;0.10;;;;;;;;;;5061890;28;20240;-68
2021/05/01 12:51:11;;;;;;;0.10;0.10;;;;;;;;;;5055984;28;20193;-68
2021/05/01 12:53:37;;;;;;;0.10;0.10;;;;;;;;;;5058592;28;20201;-68
2021/05/01 12:56:17;;;;;;;0.10;0.10;;;;;;;;;;5057788;28;20213;-67
2021/05/01 12:58:42;;;;;;;0.10;0.10;;;;;;;;;;5061232;28;20211;-68
2021/05/01 13:01:22;;;;;;;0.10;0.10;;;;;;;;;;5061982;28;20207;-66
2021/05/01 13:04:07;;;;;;;0.10;0.10;;;;;;;;;;5054337;28;20357;-69
2021/05/01 13:06:33;;;;;;;0.10;0.10;;;;;;;;;;5055506;28;20234;-67
2021/05/01 13:08:59;;;;;;;0.10;0.10;;;;;;;;;;5054118;28;20206;-69
2021/05/01 13:11:28;;;;;;;0.10;0.10;;;;;;;;;;5056130;28;20212;-68
2021/05/01 13:14:09;;;;;;;0.10;0.10;;;;;;;;;;5053836;28;20203;-67
2021/05/01 13:16:50;;;;;;;0.00;0.00;;;;;;;;;;5054858;28;20216;-72
2021/05/01 13:19:16;;;;;;;0.00;0.00;;;;;;;;;;5061714;28;20226;-70
2021/05/01 13:21:46;;;;;;;0.00;0.00;;;;;;;;;;5057335;28;20210;-69
2021/05/01 13:24:14;;;;;;;0.00;0.00;;;;;;;;;;5056913;28;20234;-68
2021/05/01 13:26:39;;;;;;;0.10;0.10;;;;;;;;;;5062053;28;20222;-70
2021/05/01 13:29:05;;;;;;;0.10;0.10;;;;;;;;;;5048740;28;20214;-70
2021/05/01 13:31:31;;;;;;;0.10;0.10;;;;;;;;;;5064228;28;20221;-67
2021/05/01 13:33:57;;;;;;;0.10;0.10;;;;;;;;;;5062880;28;20269;-70
2021/05/01 13:36:24;;;;;;;0.10;0.10;;;;;;;;;;5062953;28;20214;-70
2021/05/01 13:38:50;;;;;;;0.10;0.10;;;;;;;;;;5064417;28;20215;-70
2021/05/01 13:41:17;;;;;;;0.10;0.10;;;;;;;;;;5060574;28;20296;-70
2021/05/01 13:43:53;;;;;;;0.10;0.10;;;;;;;;;;5056047;28;20214;-68
2021/05/01 13:46:20;;;;;;;0.00;0.00;;;;;;;;;;5055755;28;20311;-65
2021/05/01 13:48:46;;;;;;;0.10;0.10;;;;;;;;;;5057772;28;20382;-63
2021/05/01 13:51:12;;;;;;;0.10;0.10;;;;;;;;;;5052955;28;20276;-68
2021/05/01 13:53:39;;;;;;;0.10;0.10;;;;;;;;;;5057915;28;20522;-70
2021/05/01 13:56:05;;;;;;;0.10;0.10;;;;;;;;;;5062790;28;20207;-69
2021/05/01 13:58:33;;;;;;;0.10;0.10;;;;;;;;;;5061265;28;20258;-70
2021/05/01 14:00:59;;;;;;;0.10;0.10;;;;;;;;;;5056009;28;20521;-70
2021/05/01 14:03:27;;;;;;;0.10;0.10;;;;;;;;;;5054875;28;20569;-70
2021/05/01 14:05:53;;;;;;;0.07;0.07;;;;;;;;;;5051382;28;20207;-71
2021/05/01 14:08:19;;;;;;;0.00;0.00;;;;;;;;;;5059575;28;20227;-69
2021/05/01 14:10:47;;;;;;;0.10;0.10;;;;;;;;;;5044579;28;20204;-71
2021/05/01 14:13:15;;;;;;;0.10;0.10;;;;;;;;;;5060163;28;20223;-71
2021/05/01 14:15:41;;;;;;;0.10;0.10;;;;;;;;;;5064080;28;20289;-69
2021/05/01 14:18:08;;;;;;;0.10;0.10;;;;;;;;;;5046017;28;20286;-68
2021/05/01 14:20:35;;;;;;;0.10;0.10;;;;;;;;;;5050985;28;20207;-70
2021/05/01 14:23:01;;;;;;;0.10;0.10;;;;;;;;;;5059738;28;20230;-71
2021/05/01 14:25:27;;;;;;;0.10;0.10;;;;;;;;;;5049837;28;20498;-68
2021/05/01 14:27:54;;;;;;;0.10;0.10;;;;;;;;;;5055615;28;20223;-69
2021/05/01 14:30:36;;;;;;;0.10;0.10;;;;;;;;;;5058993;28;20209;-70
2021/05/01 14:33:02;;;;;;;0.10;0.10;;;;;;;;;;5062813;28;20232;-70
2021/05/01 14:35:29;;;;;;;0.10;0.10;;;;;;;;;;5053728;28;20211;-68
2021/05/01 14:37:55;;;;;;;0.10;0.10;;;;;;;;;;5057744;28;20212;-71
2021/05/01 14:40:21;;;;;;;0.10;0.10;;;;;;;;;;5056851;28;20215;-69
2021/05/01 14:42:48;;;;;;;0.10;0.10;;;;;;;;;;5045654;28;20213;-69
2021/05/01 14:45:19;;;;;;;0.10;0.10;;;;;;;;;;5063927;28;20326;-71
2021/05/01 14:47:45;;;;;;;0.10;0.10;;;;;;;;;;5056408;28;20235;-70
2021/05/01 14:50:29;;;;;;;0.10;0.10;;;;;;;;;;5050489;28;20207;-70